Terminal Aerodrome Forecast
Issued by NWS

Home | Current Version | Previous Version | Text Only | Print | Product List | Glossary On
Versions: 1 2 3 4 5 6 7 8 9 10 11 12 13 14 15 16 17 18 19 20 21
201
FTUS43 KAPX 042119 AAA
TAFMBL
TAF AMD
KMBL 042119Z 0421/0518 12003KT 1SM -SN BR BKN006 OVC010
     FM042300 16006KT 1SM -SN OVC006
     FM050200 19006KT 1SM -SN OVC006
     FM050500 24007KT 3SM -SNDZ BR OVC006
     FM050900 26007KT P6SM BKN020
     FM051700 23007KT P6SM BKN150=

USA.gov is the U.S. government's official web portal to all federal, state and local government web resources and services.